Capitol Logistics 371


KMIA
Miami International Airport
Miami, Florida, US
KCLT
Charlotte/Douglas International Airport
Charlotte, North Carolina, US

Route Details

Aircraft Information
Primary: Boeing 767-300BDSF
Backup: Not Available
Route Data
Distance: 567nm
Sched. Duration: 1h 55m
Avg. Duration: 1h 62m (+8m)
Times Flown: 4
Recm'd Route: HEDLY2 HEDLY STYMY ZERBO Q87 VIYAP CHECR STOCR3
Planned Altitude: 35,000ft
Origin Wx: KMIA 122353Z 24004KT 10SM FEW030 FEW100 BKN220 29/23 A2993 RMK AO2 SLP135 T02890228 10328 20289 56008 $
Dest. Wx: KCLT 130052Z 00000KT 10SM FEW055 FEW090 BKN250 28/18 A2982 RMK AO2 SLP086 CB DSNT NW T02780183
Notes:

Financial History
Total Freight: 314,637lbs
Average Load: 78,659lbs/flt
Fuel Used: 73,353lbs
Avg. Fuel Used: 18,338lbs/flt
Fuel Expense: $90,224
Avg. Fuel Expense: $22,556
Avg. Fuel Cost: $1.23/lbs
Total Gross Income: $425,969
Pilot Pay: $896
Total Expenses: $46,213
Total Revenue: $288,137
Average Revenue: $106,492.33